Time;durP1;ratioP1;P1;durP2;ratioP2;P2;SDS_P1;SDS_P2;PMS_P1;PMS_P2;Temp;Humidity;BMP_temperature;BMP_pressure;BME280_temperature;BME280_humidity;BME280_pressure;Samples;Min_cycle;Max_cycle;Signal;HPM_P1;HPM_P2
2022/09/30 00:01:44;;;;;;;7.80;4.10;;;;;;;;;;4980485;28;93127;-70
2022/09/30 00:04:21;;;;;;;3.92;3.05;;;;;;;;;;4976666;28;93398;-70
2022/09/30 00:06:48;;;;;;;2.88;2.60;;;;;;;;;;4972622;28;95348;-70
2022/09/30 00:09:15;;;;;;;3.92;2.83;;;;;;;;;;4974723;28;93417;-70
2022/09/30 00:11:41;;;;;;;5.28;3.63;;;;;;;;;;4977667;28;91563;-70
2022/09/30 00:14:12;;;;;;;5.30;3.47;;;;;;;;;;4983798;28;94395;-70
2022/09/30 00:16:38;;;;;;;3.55;2.92;;;;;;;;;;4989505;28;93643;-71
2022/09/30 00:19:05;;;;;;;11.27;2.80;;;;;;;;;;4963646;28;94943;-70
2022/09/30 00:21:34;;;;;;;3.45;2.38;;;;;;;;;;4971735;28;93465;-70
2022/09/30 00:24:01;;;;;;;6.25;2.70;;;;;;;;;;4972527;28;92450;-70
2022/09/30 00:26:28;;;;;;;6.82;3.30;;;;;;;;;;4974691;28;93622;-70
2022/09/30 00:28:56;;;;;;;5.10;2.80;;;;;;;;;;4975812;28;93493;-70
2022/09/30 00:31:24;;;;;;;3.28;2.83;;;;;;;;;;4975845;28;92591;-70
2022/09/30 00:34:05;;;;;;;3.60;2.53;;;;;;;;;;4978555;28;92517;-70
2022/09/30 00:36:51;;;;;;;6.43;4.13;;;;;;;;;;4978077;28;91612;-70
2022/09/30 00:39:19;;;;;;;8.32;2.85;;;;;;;;;;4975805;28;93293;-70
2022/09/30 00:41:47;;;;;;;3.70;2.50;;;;;;;;;;4976060;28;94630;-70
2022/09/30 00:44:31;;;;;;;3.72;2.65;;;;;;;;;;4974687;28;95003;-70
2022/09/30 00:46:58;;;;;;;3.88;3.05;;;;;;;;;;4973189;28;95407;-70
2022/09/30 00:49:24;;;;;;;3.25;2.35;;;;;;;;;;4960606;28;93421;-69
2022/09/30 00:51:53;;;;;;;3.92;2.72;;;;;;;;;;4976396;28;93675;-70
2022/09/30 00:54:28;;;;;;;5.95;2.20;;;;;;;;;;4976366;28;93087;-70
2022/09/30 00:56:56;;;;;;;3.30;2.30;;;;;;;;;;4979708;28;94453;-70
2022/09/30 00:59:33;;;;;;;2.45;2.25;;;;;;;;;;4975625;28;93844;-70
2022/09/30 01:02:00;;;;;;;2.22;2.03;;;;;;;;;;4969588;28;93392;-70
2022/09/30 01:04:28;;;;;;;2.60;2.22;;;;;;;;;;4965438;28;92637;-70
2022/09/30 01:06:54;;;;;;;4.13;2.17;;;;;;;;;;4975384;28;93114;-69
2022/09/30 01:09:20;;;;;;;3.22;2.22;;;;;;;;;;4976296;28;97465;-70
2022/09/30 01:11:47;;;;;;;8.93;2.22;;;;;;;;;;4978592;28;92453;-70
2022/09/30 01:14:18;;;;;;;3.20;2.10;;;;;;;;;;4977000;28;92486;-69
2022/09/30 01:17:04;;;;;;;4.20;2.47;;;;;;;;;;4973041;28;93429;-70
2022/09/30 01:19:45;;;;;;;4.10;2.50;;;;;;;;;;4975605;28;92485;-70
2022/09/30 01:22:25;;;;;;;2.05;1.80;;;;;;;;;;4969234;28;93547;-69
2022/09/30 01:25:01;;;;;;;8.52;2.05;;;;;;;;;;4968603;28;93158;-70
2022/09/30 01:27:42;;;;;;;3.45;2.13;;;;;;;;;;4975420;28;94135;-70
2022/09/30 01:30:08;;;;;;;3.83;2.00;;;;;;;;;;4975790;28;93759;-70
2022/09/30 01:32:44;;;;;;;4.80;2.00;;;;;;;;;;4982074;28;92513;-70
2022/09/30 01:35:17;;;;;;;5.28;1.70;;;;;;;;;;4970102;28;94757;-70
2022/09/30 01:37:56;;;;;;;1.73;1.63;;;;;;;;;;4972081;28;92620;-69
2022/09/30 01:40:37;;;;;;;1.73;1.60;;;;;;;;;;4956758;28;92489;-70
2022/09/30 01:43:03;;;;;;;6.25;1.83;;;;;;;;;;4972933;28;93427;-70
2022/09/30 01:45:34;;;;;;;2.40;1.58;;;;;;;;;;4974597;28;92517;-69
2022/09/30 01:48:08;;;;;;;9.27;2.20;;;;;;;;;;4967955;28;94218;-69
2022/09/30 01:50:37;;;;;;;2.40;1.98;;;;;;;;;;4977463;28;94797;-70
2022/09/30 01:53:07;;;;;;;2.33;1.83;;;;;;;;;;4981285;28;91838;-70
2022/09/30 01:55:51;;;;;;;5.78;2.08;;;;;;;;;;4976281;28;94020;-69
2022/09/30 01:58:21;;;;;;;4.28;1.73;;;;;;;;;;4973451;28;93441;-70
2022/09/30 02:00:49;;;;;;;3.73;1.80;;;;;;;;;;4979145;28;95129;-69
2022/09/30 02:03:30;;;;;;;2.35;1.77;;;;;;;;;;4978298;28;96573;-70
2022/09/30 02:06:01;;;;;;;3.78;2.22;;;;;;;;;;4977746;28;93995;-70
2022/09/30 02:08:33;;;;;;;2.72;1.73;;;;;;;;;;4982070;28;94088;-69
2022/09/30 02:11:08;;;;;;;6.45;1.95;;;;;;;;;;4975070;28;94487;-70
2022/09/30 02:13:38;;;;;;;6.05;1.92;;;;;;;;;;4990958;28;92425;-70
2022/09/30 02:16:11;;;;;;;3.00;2.07;;;;;;;;;;4977102;28;93272;-69
2022/09/30 02:18:41;;;;;;;3.30;1.80;;;;;;;;;;4973065;28;92637;-70
2022/09/30 02:21:07;;;;;;;2.22;1.65;;;;;;;;;;4974310;28;92490;-70
2022/09/30 02:23:37;;;;;;;3.58;1.90;;;;;;;;;;4971337;28;93277;-70
2022/09/30 02:26:18;;;;;;;1.73;1.50;;;;;;;;;;4975603;28;96139;-70
2022/09/30 02:28:48;;;;;;;3.28;1.73;;;;;;;;;;4979587;28;95640;-70
2022/09/30 02:31:16;;;;;;;2.28;1.92;;;;;;;;;;4973376;28;93376;-70
2022/09/30 02:33:48;;;;;;;5.82;1.75;;;;;;;;;;4973137;28;93493;-70
2022/09/30 02:36:15;;;;;;;2.30;1.85;;;;;;;;;;4968665;28;93146;-70
2022/09/30 02:38:43;;;;;;;1.58;1.48;;;;;;;;;;4973829;28;93441;-70
2022/09/30 02:41:22;;;;;;;3.13;1.90;;;;;;;;;;4974773;28;92506;-70
2022/09/30 02:43:49;;;;;;;4.47;1.77;;;;;;;;;;4980568;28;93095;-70
2022/09/30 02:46:34;;;;;;;6.95;1.90;;;;;;;;;;4974833;28;93440;-69
2022/09/30 02:49:07;;;;;;;1.95;1.50;;;;;;;;;;4978631;28;92561;-70
2022/09/30 02:51:44;;;;;;;2.20;1.60;;;;;;;;;;4972342;28;94836;-70
2022/09/30 02:54:18;;;;;;;3.30;1.73;;;;;;;;;;4969465;28;92476;-70
2022/09/30 02:56:49;;;;;;;6.43;1.60;;;;;;;;;;4984731;28;94207;-70
2022/09/30 02:59:15;;;;;;;7.82;1.60;;;;;;;;;;4974621;28;93448;-70
2022/09/30 03:01:42;;;;;;;3.00;1.60;;;;;;;;;;4973977;28;92447;-70
2022/09/30 03:04:10;;;;;;;1.95;1.70;;;;;;;;;;4975612;28;93184;-70
2022/09/30 03:06:37;;;;;;;8.88;1.42;;;;;;;;;;4971975;28;93410;-70
2022/09/30 03:09:03;;;;;;;6.03;1.48;;;;;;;;;;4976436;28;91740;-70
2022/09/30 03:11:30;;;;;;;2.08;1.75;;;;;;;;;;4978550;28;92382;-70
2022/09/30 03:14:06;;;;;;;4.43;1.63;;;;;;;;;;4983502;28;92483;-69
2022/09/30 03:16:38;;;;;;;2.60;1.77;;;;;;;;;;4972776;28;94912;-70
2022/09/30 03:19:13;;;;;;;3.20;1.70;;;;;;;;;;4977548;28;94895;-70
2022/09/30 03:21:45;;;;;;;7.68;1.80;;;;;;;;;;4974693;28;93871;-70
2022/09/30 03:24:24;;;;;;;3.45;1.85;;;;;;;;;;4973719;28;93110;-70
2022/09/30 03:26:59;;;;;;;2.00;1.70;;;;;;;;;;4973513;28;94561;-70
2022/09/30 03:29:42;;;;;;;2.40;1.60;;;;;;;;;;4972915;28;93907;-70
2022/09/30 03:32:28;;;;;;;4.97;1.83;;;;;;;;;;4984129;28;94266;-70
2022/09/30 03:35:02;;;;;;;4.50;1.90;;;;;;;;;;4968623;28;92671;-70
2022/09/30 03:37:29;;;;;;;2.33;1.92;;;;;;;;;;4983717;28;93082;-70
2022/09/30 03:40:01;;;;;;;1.80;1.70;;;;;;;;;;4986291;28;96898;-70
2022/09/30 03:42:31;;;;;;;4.10;1.50;;;;;;;;;;4976488;28;94852;-70
2022/09/30 03:45:16;;;;;;;9.75;1.83;;;;;;;;;;4986617;28;95475;-70
2022/09/30 03:47:44;;;;;;;6.88;1.90;;;;;;;;;;4962156;28;93477;-69
2022/09/30 03:50:13;;;;;;;15.13;1.92;;;;;;;;;;4974204;28;92447;-70
2022/09/30 03:52:39;;;;;;;1.92;1.80;;;;;;;;;;4976380;28;93142;-70
2022/09/30 03:55:07;;;;;;;2.20;2.00;;;;;;;;;;4974451;28;94439;-70
2022/09/30 03:57:33;;;;;;;2.00;1.88;;;;;;;;;;4993908;28;92649;-70
2022/09/30 04:00:00;;;;;;;4.63;1.90;;;;;;;;;;4993799;28;93586;-70
2022/09/30 04:02:27;;;;;;;4.75;1.90;;;;;;;;;;4977420;28;93721;-70
2022/09/30 04:04:53;;;;;;;3.15;1.70;;;;;;;;;;4979834;28;92460;-70
2022/09/30 04:07:19;;;;;;;2.83;2.15;;;;;;;;;;4972349;28;96799;-70
2022/09/30 04:09:45;;;;;;;4.00;1.70;;;;;;;;;;4995013;28;92485;-70
2022/09/30 04:12:12;;;;;;;1.90;1.80;;;;;;;;;;4992388;28;93188;-70
2022/09/30 04:14:38;;;;;;;3.97;2.00;;;;;;;;;;4976187;28;93440;-70
2022/09/30 04:17:04;;;;;;;3.13;2.13;;;;;;;;;;4979573;28;92443;-70
2022/09/30 04:19:31;;;;;;;3.75;2.70;;;;;;;;;;4981552;28;94552;-70
2022/09/30 04:21:57;;;;;;;3.50;1.80;;;;;;;;;;4978065;28;93610;-70
2022/09/30 04:24:24;;;;;;;3.13;1.90;;;;;;;;;;4989304;28;93158;-70
2022/09/30 04:26:50;;;;;;;7.50;1.98;;;;;;;;;;4983880;28;94398;-70
2022/09/30 04:29:17;;;;;;;3.75;1.92;;;;;;;;;;4977239;28;92488;-70
2022/09/30 04:31:43;;;;;;;4.70;1.80;;;;;;;;;;4973344;28;94911;-70
2022/09/30 04:34:10;;;;;;;2.10;1.90;;;;;;;;;;4974766;28;93351;-70
2022/09/30 04:36:37;;;;;;;2.03;1.77;;;;;;;;;;4972650;28;92701;-70
2022/09/30 04:39:03;;;;;;;4.35;2.10;;;;;;;;;;4960598;28;92984;-70
2022/09/30 04:41:31;;;;;;;6.80;2.15;;;;;;;;;;4972165;28;92447;-70
2022/09/30 04:43:57;;;;;;;2.13;1.80;;;;;;;;;;4993478;28;93435;-71
2022/09/30 04:46:23;;;;;;;12.52;1.92;;;;;;;;;;4983563;28;94468;-70
2022/09/30 04:48:49;;;;;;;1.70;1.60;;;;;;;;;;4976781;28;91689;-71
2022/09/30 04:51:17;;;;;;;1.90;1.42;;;;;;;;;;4975808;28;92601;-70
2022/09/30 04:53:44;;;;;;;3.95;1.77;;;;;;;;;;4976482;28;93433;-70
2022/09/30 04:56:10;;;;;;;3.15;1.48;;;;;;;;;;4974655;28;94891;-71
2022/09/30 04:58:37;;;;;;;2.65;1.65;;;;;;;;;;4976399;28;95473;-70
2022/09/30 05:01:04;;;;;;;4.07;1.58;;;;;;;;;;4978134;28;93507;-70
2022/09/30 05:03:31;;;;;;;3.15;2.03;;;;;;;;;;4960922;28;93251;-70
2022/09/30 05:05:57;;;;;;;4.32;3.70;;;;;;;;;;4975704;28;93409;-70
2022/09/30 05:08:23;;;;;;;6.93;3.60;;;;;;;;;;4975772;28;92404;-70
2022/09/30 05:10:56;;;;;;;8.93;4.43;;;;;;;;;;4977187;28;94536;-70
2022/09/30 05:13:24;;;;;;;8.35;4.03;;;;;;;;;;4976466;28;92698;-70
2022/09/30 05:15:50;;;;;;;5.55;5.03;;;;;;;;;;4977126;28;92480;-70
2022/09/30 05:18:20;;;;;;;5.68;4.28;;;;;;;;;;4975215;28;94712;-70
2022/09/30 05:20:50;;;;;;;5.25;4.32;;;;;;;;;;4971101;28;96972;-71
2022/09/30 05:23:17;;;;;;;8.27;3.05;;;;;;;;;;4978655;28;93113;-71
2022/09/30 05:25:43;;;;;;;3.05;2.60;;;;;;;;;;4976817;28;94639;-71
2022/09/30 05:28:11;;;;;;;7.93;2.90;;;;;;;;;;4975122;28;92915;-70
2022/09/30 05:30:37;;;;;;;5.32;2.90;;;;;;;;;;4975439;28;94193;-70
2022/09/30 05:33:04;;;;;;;3.53;2.83;;;;;;;;;;4971988;28;93455;-70
2022/09/30 05:35:31;;;;;;;5.13;2.78;;;;;;;;;;4977183;28;92598;-70
2022/09/30 05:37:58;;;;;;;3.20;2.75;;;;;;;;;;4974315;28;93249;-71
2022/09/30 05:40:24;;;;;;;6.82;2.70;;;;;;;;;;4973967;28;94439;-71
2022/09/30 05:42:51;;;;;;;7.93;2.85;;;;;;;;;;4969674;28;92516;-71
2022/09/30 05:45:17;;;;;;;2.55;2.35;;;;;;;;;;4966454;28;97287;-70
2022/09/30 05:47:49;;;;;;;2.50;2.08;;;;;;;;;;4975062;28;92493;-70
2022/09/30 05:50:15;;;;;;;12.38;2.55;;;;;;;;;;4979436;28;94187;-70
2022/09/30 05:52:42;;;;;;;13.68;3.08;;;;;;;;;;4975899;28;94418;-70
2022/09/30 05:55:08;;;;;;;6.47;3.20;;;;;;;;;;4976315;28;92534;-70
2022/09/30 05:57:35;;;;;;;6.63;3.47;;;;;;;;;;4974442;28;92946;-70
2022/09/30 06:00:01;;;;;;;5.05;3.53;;;;;;;;;;4983362;28;95382;-70
2022/09/30 06:02:27;;;;;;;7.95;4.47;;;;;;;;;;4967439;28;91680;-70
2022/09/30 06:04:54;;;;;;;8.63;5.07;;;;;;;;;;4971934;28;92507;-70
2022/09/30 06:07:20;;;;;;;12.00;5.60;;;;;;;;;;4976885;28;93191;-70
2022/09/30 06:09:46;;;;;;;9.38;5.32;;;;;;;;;;4972846;28;94859;-70
2022/09/30 06:12:15;;;;;;;19.50;5.57;;;;;;;;;;4973206;28;93533;-69
2022/09/30 06:14:41;;;;;;;8.77;5.60;;;;;;;;;;4970350;28;92608;-69
2022/09/30 06:17:08;;;;;;;10.23;5.93;;;;;;;;;;4975111;28;94129;-70
2022/09/30 06:19:34;;;;;;;10.98;5.22;;;;;;;;;;4975360;28;93298;-71
2022/09/30 06:22:00;;;;;;;12.77;7.45;;;;;;;;;;4976122;28;92490;-71
2022/09/30 06:24:26;;;;;;;17.67;6.65;;;;;;;;;;4973422;28;93146;-71
2022/09/30 06:26:53;;;;;;;12.48;6.20;;;;;;;;;;4979409;28;93665;-71
2022/09/30 06:29:19;;;;;;;12.25;6.60;;;;;;;;;;4990991;28;93507;-69
2022/09/30 06:31:45;;;;;;;10.25;6.00;;;;;;;;;;4993811;28;94398;-69
2022/09/30 06:34:12;;;;;;;7.47;6.32;;;;;;;;;;4973249;28;94951;-70
2022/09/30 06:36:38;;;;;;;17.00;7.45;;;;;;;;;;4974466;28;95736;-70
2022/09/30 06:39:05;;;;;;;16.33;8.20;;;;;;;;;;4975597;28;94447;-69
2022/09/30 06:41:41;;;;;;;19.85;9.50;;;;;;;;;;4974922;28;92696;-69
2022/09/30 06:44:07;;;;;;;15.23;9.25;;;;;;;;;;4975218;28;93142;-70
2022/09/30 06:46:34;;;;;;;17.30;8.48;;;;;;;;;;4974847;28;93519;-70
2022/09/30 06:49:10;;;;;;;13.50;8.90;;;;;;;;;;4977907;28;92445;-70
2022/09/30 06:51:39;;;;;;;13.68;8.98;;;;;;;;;;4975448;28;92956;-70
2022/09/30 06:54:05;;;;;;;11.80;8.68;;;;;;;;;;4972739;28;93784;-70
2022/09/30 06:56:31;;;;;;;16.08;10.55;;;;;;;;;;4972764;28;93241;-72
2022/09/30 06:58:57;;;;;;;18.15;11.38;;;;;;;;;;4966249;28;96671;-72
2022/09/30 07:01:24;;;;;;;17.02;11.95;;;;;;;;;;4974275;28;92519;-72
2022/09/30 07:03:56;;;;;;;27.42;16.15;;;;;;;;;;4973383;28;94100;-71
2022/09/30 07:06:24;;;;;;;31.58;17.98;;;;;;;;;;4972240;28;94140;-69
2022/09/30 07:08:52;;;;;;;22.83;14.75;;;;;;;;;;4975061;28;92456;-69
2022/09/30 07:11:18;;;;;;;22.52;15.82;;;;;;;;;;4977315;28;94179;-68
2022/09/30 07:13:48;;;;;;;18.60;14.02;;;;;;;;;;4984030;28;92648;-69
2022/09/30 07:16:18;;;;;;;21.38;13.98;;;;;;;;;;4980026;28;93079;-70
2022/09/30 07:18:44;;;;;;;22.58;13.73;;;;;;;;;;4974277;28;93451;-70
2022/09/30 07:21:12;;;;;;;24.00;15.10;;;;;;;;;;4972294;28;92536;-69
2022/09/30 07:23:46;;;;;;;20.92;15.27;;;;;;;;;;4985248;28;94852;-72
2022/09/30 07:26:17;;;;;;;22.67;15.75;;;;;;;;;;4972940;28;93408;-71
2022/09/30 07:28:44;;;;;;;22.42;16.45;;;;;;;;;;4985707;28;92534;-71
2022/09/30 07:31:12;;;;;;;25.50;17.45;;;;;;;;;;4972139;28;93349;-70
2022/09/30 07:33:58;;;;;;;25.15;17.63;;;;;;;;;;4976733;28;93376;-70
2022/09/30 07:36:28;;;;;;;35.38;20.80;;;;;;;;;;4975935;28;93144;-70
2022/09/30 07:38:59;;;;;;;29.20;19.52;;;;;;;;;;4976498;28;93444;-70
2022/09/30 07:41:27;;;;;;;39.58;23.67;;;;;;;;;;4985997;28;91727;-71
2022/09/30 07:43:55;;;;;;;31.67;21.92;;;;;;;;;;4978842;28;92422;-70
2022/09/30 07:46:23;;;;;;;35.13;23.95;;;;;;;;;;4977444;28;93434;-71
2022/09/30 07:48:51;;;;;;;33.35;23.55;;;;;;;;;;4976605;28;94843;-70
2022/09/30 07:51:19;;;;;;;48.70;25.17;;;;;;;;;;4975768;28;95442;-70
2022/09/30 07:53:48;;;;;;;35.85;23.80;;;;;;;;;;4976952;28;93439;-70
2022/09/30 07:56:15;;;;;;;41.53;25.25;;;;;;;;;;4982094;28;93397;-70
2022/09/30 07:58:41;;;;;;;36.97;23.63;;;;;;;;;;4973848;28;94796;-71
2022/09/30 08:01:08;;;;;;;39.28;24.70;;;;;;;;;;4975423;28;92555;-71
2022/09/30 08:03:37;;;;;;;36.53;23.75;;;;;;;;;;4977489;28;93276;-71
2022/09/30 08:06:05;;;;;;;42.33;23.07;;;;;;;;;;4966407;28;92731;-71
2022/09/30 08:08:31;;;;;;;34.47;23.33;;;;;;;;;;4977235;28;92478;-70
2022/09/30 08:10:59;;;;;;;36.58;23.10;;;;;;;;;;4973476;28;93375;-70
2022/09/30 08:13:25;;;;;;;31.42;20.52;;;;;;;;;;4972768;28;96335;-71
2022/09/30 08:15:51;;;;;;;28.02;20.90;;;;;;;;;;4980591;28;92443;-70
2022/09/30 08:18:17;;;;;;;31.42;21.50;;;;;;;;;;4979705;28;94230;-70
2022/09/30 08:20:43;;;;;;;34.28;18.75;;;;;;;;;;4976249;28;92463;-70
2022/09/30 08:23:10;;;;;;;29.23;19.45;;;;;;;;;;4976946;28;93268;-70
2022/09/30 08:25:36;;;;;;;26.67;18.20;;;;;;;;;;4974699;28;93435;-70
2022/09/30 08:28:02;;;;;;;29.58;20.05;;;;;;;;;;4976181;28;93802;-70
2022/09/30 08:30:29;;;;;;;23.83;17.48;;;;;;;;;;4976790;28;94230;-70
2022/09/30 08:32:56;;;;;;;29.55;17.13;;;;;;;;;;4986726;28;93573;-70
2022/09/30 08:35:22;;;;;;;25.75;17.90;;;;;;;;;;4974805;28;92473;-70
2022/09/30 08:37:50;;;;;;;24.50;16.58;;;;;;;;;;4977259;28;94847;-71
2022/09/30 08:40:25;;;;;;;19.10;15.77;;;;;;;;;;4976350;28;92461;-70
2022/09/30 08:43:17;;;;;;;20.35;14.73;;;;;;;;;;4989810;28;93197;-71
2022/09/30 08:45:59;;;;;;;17.58;12.75;;;;;;;;;;4975286;28;93416;-71
2022/09/30 08:48:35;;;;;;;20.55;13.20;;;;;;;;;;4973665;28;92496;-68
2022/09/30 08:51:26;;;;;;;18.77;13.95;;;;;;;;;;4981478;28;94248;-69
2022/09/30 08:53:53;;;;;;;16.08;12.07;;;;;;;;;;4975209;28;93436;-69
2022/09/30 08:56:26;;;;;;;22.33;13.02;;;;;;;;;;4967936;28;93578;-69
2022/09/30 08:58:55;;;;;;;17.35;13.35;;;;;;;;;;4977675;28;94004;-68
2022/09/30 09:01:31;;;;;;;20.15;14.93;;;;;;;;;;4993751;28;93466;-69
2022/09/30 09:03:57;;;;;;;19.00;13.00;;;;;;;;;;4980966;28;94777;-69
2022/09/30 09:06:27;;;;;;;20.33;13.70;;;;;;;;;;4974394;28;94504;-68
2022/09/30 09:09:09;;;;;;;20.85;13.73;;;;;;;;;;4996427;28;92412;-68
2022/09/30 09:11:46;;;;;;;17.77;13.48;;;;;;;;;;4984534;28;93328;-68
2022/09/30 09:14:32;;;;;;;21.55;13.73;;;;;;;;;;4990274;28;94384;-68
2022/09/30 09:17:19;;;;;;;23.73;15.18;;;;;;;;;;4976534;28;92612;-68
2022/09/30 09:20:01;;;;;;;19.95;14.57;;;;;;;;;;4975120;28;93833;-68
2022/09/30 09:22:27;;;;;;;18.25;14.48;;;;;;;;;;4976512;28;93995;-68
2022/09/30 09:24:54;;;;;;;18.13;13.23;;;;;;;;;;4979215;28;92479;-68
2022/09/30 09:27:39;;;;;;;15.23;12.15;;;;;;;;;;4976353;28;93428;-68
2022/09/30 09:30:07;;;;;;;16.17;12.35;;;;;;;;;;4971211;28;94845;-68
2022/09/30 09:32:34;;;;;;;18.83;12.20;;;;;;;;;;4982787;28;95563;-69
2022/09/30 09:35:05;;;;;;;14.52;12.40;;;;;;;;;;4971897;28;92614;-70
2022/09/30 09:40:38;;;;;;;24.08;12.55;;;;;;;;;;4975738;28;93197;-70
2022/09/30 09:43:18;;;;;;;19.33;11.05;;;;;;;;;;4973672;28;94056;-70
2022/09/30 09:45:54;;;;;;;20.80;11.27;;;;;;;;;;4984798;28;92731;-75
2022/09/30 09:48:20;;;;;;;14.35;10.25;;;;;;;;;;4979657;28;93422;-70
2022/09/30 09:51:11;;;;;;;14.57;9.65;;;;;;;;;;4975019;28;92476;-69
2022/09/30 09:53:40;;;;;;;17.92;11.60;;;;;;;;;;4956851;28;93180;-70
2022/09/30 09:56:17;;;;;;;16.88;9.60;;;;;;;;;;4972656;28;95823;-70
2022/09/30 09:59:03;;;;;;;12.43;10.00;;;;;;;;;;4974702;28;94290;-70
2022/09/30 10:01:33;;;;;;;14.02;8.55;;;;;;;;;;4975349;28;93193;-69
2022/09/30 10:04:26;;;;;;;10.43;7.97;;;;;;;;;;4974968;28;94456;-70
2022/09/30 10:06:54;;;;;;;13.50;7.90;;;;;;;;;;4973040;28;92608;-70
2022/09/30 10:09:21;;;;;;;10.85;8.32;;;;;;;;;;4960070;28;93517;-70
2022/09/30 10:11:47;;;;;;;11.80;8.30;;;;;;;;;;4976706;28;93635;-70
2022/09/30 10:14:20;;;;;;;9.48;7.95;;;;;;;;;;4975365;28;93174;-70
2022/09/30 10:16:47;;;;;;;11.48;7.28;;;;;;;;;;4973084;28;94422;-70
2022/09/30 10:19:19;;;;;;;17.75;7.50;;;;;;;;;;4974959;28;92398;-70
2022/09/30 10:21:45;;;;;;;8.23;6.63;;;;;;;;;;4974665;28;94748;-70
2022/09/30 10:24:38;;;;;;;9.70;6.82;;;;;;;;;;4975635;28;93423;-70
2022/09/30 10:27:30;;;;;;;12.27;7.53;;;;;;;;;;4975162;28;92450;-71
2022/09/30 10:29:57;;;;;;;9.38;7.30;;;;;;;;;;4969258;28;93204;-71
2022/09/30 10:32:24;;;;;;;8.15;5.45;;;;;;;;;;4976455;28;93764;-71
2022/09/30 10:34:53;;;;;;;10.40;5.97;;;;;;;;;;4979135;28;92461;-71
2022/09/30 10:37:21;;;;;;;8.73;5.25;;;;;;;;;;4974493;28;93808;-71
2022/09/30 10:39:55;;;;;;;10.50;6.38;;;;;;;;;;4975248;28;91751;-70
2022/09/30 10:42:23;;;;;;;11.07;5.60;;;;;;;;;;4985708;28;92971;-70
2022/09/30 10:44:54;;;;;;;7.05;4.88;;;;;;;;;;4974247;28;93843;-71
2022/09/30 10:47:25;;;;;;;8.43;5.18;;;;;;;;;;4974364;28;95009;-71
2022/09/30 10:49:54;;;;;;;9.82;5.38;;;;;;;;;;4975194;28;95553;-70
2022/09/30 10:52:23;;;;;;;5.65;4.25;;;;;;;;;;4973740;28;94438;-71
2022/09/30 10:54:52;;;;;;;5.63;3.78;;;;;;;;;;4998284;28;92420;-71
2022/09/30 10:57:30;;;;;;;9.20;3.50;;;;;;;;;;4984648;28;94260;-71
2022/09/30 11:00:08;;;;;;;8.00;3.97;;;;;;;;;;4974974;28;92770;-71
2022/09/30 11:02:37;;;;;;;3.92;3.00;;;;;;;;;;4974369;28;92550;-70
2022/09/30 11:05:06;;;;;;;7.07;3.20;;;;;;;;;;4992295;28;92899;-70
2022/09/30 11:07:38;;;;;;;4.22;2.95;;;;;;;;;;4987225;28;92554;-69
2022/09/30 11:10:07;;;;;;;3.55;2.80;;;;;;;;;;4975129;28;94151;-69
2022/09/30 11:12:39;;;;;;;12.63;2.45;;;;;;;;;;4971072;28;95813;-70
2022/09/30 11:15:12;;;;;;;7.90;2.90;;;;;;;;;;4974465;28;93863;-70
2022/09/30 11:17:41;;;;;;;3.97;2.65;;;;;;;;;;4975734;28;93983;-71
2022/09/30 11:20:17;;;;;;;5.70;2.90;;;;;;;;;;4973486;28;92667;-70
2022/09/30 11:23:04;;;;;;;4.28;2.30;;;;;;;;;;4975233;28;94255;-70
2022/09/30 11:25:49;;;;;;;4.20;2.10;;;;;;;;;;4974846;28;93300;-70
2022/09/30 11:28:21;;;;;;;4.80;2.33;;;;;;;;;;4972894;28;93250;-70
2022/09/30 11:30:48;;;;;;;5.10;2.00;;;;;;;;;;4973974;28;94354;-68
2022/09/30 11:33:14;;;;;;;2.88;2.10;;;;;;;;;;4987976;28;94509;-68
2022/09/30 11:35:52;;;;;;;5.07;2.00;;;;;;;;;;4975246;28;92486;-71
2022/09/30 11:38:21;;;;;;;3.90;1.83;;;;;;;;;;4972583;28;94721;-72
2022/09/30 11:41:08;;;;;;;3.35;1.55;;;;;;;;;;4978085;28;93408;-71
2022/09/30 11:43:52;;;;;;;3.10;1.80;;;;;;;;;;4974455;28;93113;-71
2022/09/30 11:46:43;;;;;;;1.80;1.40;;;;;;;;;;4976727;28;93413;-70
2022/09/30 11:49:27;;;;;;;1.85;1.15;;;;;;;;;;4974262;28;92548;-70
2022/09/30 11:52:12;;;;;;;1.13;1.05;;;;;;;;;;4974648;28;93436;-71
2022/09/30 11:54:50;;;;;;;2.30;1.38;;;;;;;;;;4974653;28;93500;-70
2022/09/30 11:57:36;;;;;;;2.63;1.05;;;;;;;;;;4973720;28;91734;-69
2022/09/30 12:00:13;;;;;;;2.67;1.25;;;;;;;;;;4977355;28;92892;-69
2022/09/30 12:02:42;;;;;;;2.33;1.17;;;;;;;;;;4973287;28;94503;-69
2022/09/30 12:05:11;;;;;;;2.15;1.50;;;;;;;;;;4975188;28;94862;-69
2022/09/30 12:07:41;;;;;;;1.75;1.20;;;;;;;;;;4955457;28;92373;-69
2022/09/30 12:10:20;;;;;;;2.25;1.30;;;;;;;;;;4974847;28;92467;-70
2022/09/30 12:12:48;;;;;;;2.03;1.50;;;;;;;;;;4974613;28;93002;-70
2022/09/30 12:15:17;;;;;;;3.72;1.60;;;;;;;;;;4978627;28;94417;-70
2022/09/30 12:17:47;;;;;;;3.25;1.42;;;;;;;;;;4971832;28;92465;-68
2022/09/30 12:20:16;;;;;;;1.77;1.40;;;;;;;;;;4971039;28;93583;-69
2022/09/30 12:22:46;;;;;;;5.95;1.10;;;;;;;;;;4955805;28;93232;-69
2022/09/30 12:25:17;;;;;;;2.45;1.50;;;;;;;;;;4956027;28;92479;-69
2022/09/30 12:30:58;;;;;;;8.15;1.63;;;;;;;;;;4955161;28;94905;-69
2022/09/30 12:33:27;;;;;;;2.17;1.35;;;;;;;;;;4957787;28;94388;-69
2022/09/30 12:36:05;;;;;;;3.93;1.60;;;;;;;;;;4984104;28;93750;-69
2022/09/30 12:38:31;;;;;;;4.07;1.60;;;;;;;;;;4990166;28;92411;-69
2022/09/30 12:41:16;;;;;;;7.60;2.20;;;;;;;;;;4976329;28;93176;-70
2022/09/30 12:43:59;;;;;;;2.70;1.60;;;;;;;;;;4984970;28;93923;-70
2022/09/30 12:46:44;;;;;;;4.25;1.80;;;;;;;;;;4970225;28;92362;-69
2022/09/30 12:49:13;;;;;;;4.28;1.65;;;;;;;;;;4980139;28;93612;-69
2022/09/30 12:51:43;;;;;;;5.63;1.95;;;;;;;;;;4974651;28;92423;-69
2022/09/30 12:54:10;;;;;;;;;;;;;;;;;;4977713;28;93484;-69
2022/09/30 12:56:40;;;;;;;2.47;1.50;;;;;;;;;;4976318;28;126614;-70
2022/09/30 12:59:08;;;;;;;4.32;1.80;;;;;;;;;;4975895;28;92497;-69
2022/09/30 13:01:36;;;;;;;2.80;1.55;;;;;;;;;;4987015;28;93152;-69
2022/09/30 13:04:02;;;;;;;3.17;1.67;;;;;;;;;;4993314;28;94565;-69
2022/09/30 13:06:43;;;;;;;5.55;1.80;;;;;;;;;;4977221;28;92478;-69
2022/09/30 13:09:09;;;;;;;5.13;2.22;;;;;;;;;;4976206;28;93138;-69
2022/09/30 13:11:43;;;;;;;3.53;2.00;;;;;;;;;;4978974;28;93443;-70
2022/09/30 13:14:21;;;;;;;4.50;2.20;;;;;;;;;;4974366;28;93152;-70
2022/09/30 13:17:06;;;;;;;4.13;2.58;;;;;;;;;;4977152;28;94944;-69
2022/09/30 13:19:44;;;;;;;9.82;2.50;;;;;;;;;;4976307;28;92460;-69
2022/09/30 13:22:16;;;;;;;4.07;2.92;;;;;;;;;;4975376;28;94758;-69
2022/09/30 13:24:59;;;;;;;3.83;2.58;;;;;;;;;;4975640;28;93422;-69
2022/09/30 13:27:43;;;;;;;3.28;2.88;;;;;;;;;;4975778;28;92628;-69
2022/09/30 13:30:15;;;;;;;11.52;3.40;;;;;;;;;;4975686;28;93340;-68
2022/09/30 13:32:44;;;;;;;4.35;3.50;;;;;;;;;;4976214;28;93682;-69
2022/09/30 13:35:29;;;;;;;5.32;3.42;;;;;;;;;;4978444;28;92460;-69
2022/09/30 13:38:10;;;;;;;7.88;3.55;;;;;;;;;;4976128;28;93424;-69
2022/09/30 13:40:47;;;;;;;5.68;3.28;;;;;;;;;;4976092;28;91839;-70
2022/09/30 13:43:33;;;;;;;5.35;3.67;;;;;;;;;;4976474;28;92430;-69
2022/09/30 13:46:05;;;;;;;6.28;3.65;;;;;;;;;;4986092;28;93388;-70
2022/09/30 13:48:32;;;;;;;7.40;3.70;;;;;;;;;;4974166;28;94758;-69
2022/09/30 13:51:02;;;;;;;6.05;3.63;;;;;;;;;;4975447;28;95518;-70
2022/09/30 13:53:50;;;;;;;8.87;3.53;;;;;;;;;;4976467;28;93399;-69
2022/09/30 13:56:25;;;;;;;7.53;4.05;;;;;;;;;;4974787;28;92627;-68
2022/09/30 13:59:10;;;;;;;6.45;3.35;;;;;;;;;;4958408;28;94203;-68
2022/09/30 14:01:41;;;;;;;5.85;3.60;;;;;;;;;;4958851;28;92532;-69
2022/09/30 14:04:14;;;;;;;10.40;3.47;;;;;;;;;;4974123;28;93091;-68
2022/09/30 14:06:45;;;;;;;7.55;3.25;;;;;;;;;;4970752;28;92820;-69
2022/09/30 14:09:26;;;;;;;10.23;4.20;;;;;;;;;;4960589;28;92536;-68
2022/09/30 14:11:59;;;;;;;5.60;3.40;;;;;;;;;;4956335;28;94591;-68
2022/09/30 14:14:44;;;;;;;5.15;3.17;;;;;;;;;;4960019;28;96769;-69
2022/09/30 14:17:14;;;;;;;11.35;3.22;;;;;;;;;;4975004;28;92416;-69
2022/09/30 14:19:41;;;;;;;4.28;2.75;;;;;;;;;;4974856;28;93209;-68
2022/09/30 14:22:09;;;;;;;3.10;2.28;;;;;;;;;;4998478;28;93478;-69
2022/09/30 14:24:36;;;;;;;5.68;1.88;;;;;;;;;;4995290;28;93167;-69
2022/09/30 14:27:21;;;;;;;6.20;2.17;;;;;;;;;;4983053;28;94901;-70
2022/09/30 14:29:50;;;;;;;4.50;1.83;;;;;;;;;;4971725;28;92751;-69
2022/09/30 14:32:24;;;;;;;4.70;2.00;;;;;;;;;;4974222;28;93186;-70
2022/09/30 14:34:51;;;;;;;3.28;1.73;;;;;;;;;;4974808;28;93452;-69
2022/09/30 14:37:33;;;;;;;3.53;2.40;;;;;;;;;;4973867;28;92438;-68
2022/09/30 14:40:00;;;;;;;6.13;2.13;;;;;;;;;;4972898;28;94788;-69
2022/09/30 14:42:29;;;;;;;10.45;2.80;;;;;;;;;;4974446;28;92510;-68
2022/09/30 14:45:03;;;;;;;4.55;2.15;;;;;;;;;;4978372;28;92450;-68
2022/09/30 14:47:33;;;;;;;4.72;1.98;;;;;;;;;;4965105;28;93321;-70
2022/09/30 14:49:59;;;;;;;;;;;;;;;;;;4970308;28;92713;-69
2022/09/30 14:52:38;;;;;;;3.53;2.05;;;;;;;;;;4989878;28;122162;-70
2022/09/30 14:55:16;;;;;;;3.05;2.13;;;;;;;;;;4979891;28;93785;-69
2022/09/30 14:57:43;;;;;;;7.10;2.10;;;;;;;;;;4972545;28;93112;-67
2022/09/30 15:00:39;;;;;;;3.58;2.03;;;;;;;;;;4978895;28;92376;-69
2022/09/30 15:03:09;;;;;;;4.90;2.25;;;;;;;;;;4971184;28;93620;-69
2022/09/30 15:05:36;;;;;;;3.03;2.40;;;;;;;;;;4975713;28;94981;-70
2022/09/30 15:08:02;;;;;;;10.05;2.40;;;;;;;;;;4973085;28;93443;-69